createdAt,value
2023-04-30T00:00:18.649Z,13.00
2023-04-30T00:02:54.777Z,13.00
2023-04-30T00:05:31.219Z,13.00
2023-04-30T00:08:07.079Z,13.00
2023-04-30T00:10:42.968Z,13.00
2023-04-30T00:13:19.095Z,13.00
2023-04-30T00:15:55.016Z,13.00
2023-04-30T00:18:30.959Z,13.00
2023-04-30T00:21:06.882Z,13.00
2023-04-30T00:23:42.735Z,13.00
2023-04-30T00:26:19.054Z,13.00
2023-04-30T00:28:57.599Z,13.00
2023-04-30T00:31:33.557Z,12.90
2023-04-30T00:34:09.438Z,12.90
2023-04-30T00:36:45.325Z,12.90
2023-04-30T00:39:21.233Z,12.90
2023-04-30T00:41:57.139Z,12.90
2023-04-30T00:44:33.050Z,12.90
2023-04-30T00:47:08.989Z,12.90
2023-04-30T00:49:45.335Z,12.80
2023-04-30T00:52:21.447Z,12.90
2023-04-30T00:54:57.605Z,12.90
2023-04-30T00:57:36.186Z,12.80
2023-04-30T01:00:13.894Z,12.80
2023-04-30T01:02:50.404Z,12.80
2023-04-30T01:05:26.688Z,12.80
2023-04-30T01:08:02.568Z,12.80
2023-04-30T01:11:33.798Z,12.80
2023-04-30T01:14:25.868Z,12.70
2023-04-30T01:17:26.371Z,12.70
2023-04-30T01:20:04.196Z,12.70
2023-04-30T01:23:19.998Z,12.70
2023-04-30T01:26:11.243Z,12.70
2023-04-30T01:28:51.731Z,12.70
2023-04-30T01:31:28.548Z,12.70
2023-04-30T01:34:04.673Z,12.60
2023-04-30T01:37:33.812Z,12.70
2023-04-30T01:41:04.105Z,12.60
2023-04-30T01:43:57.432Z,12.60
2023-04-30T01:46:34.389Z,12.60
2023-04-30T01:49:22.129Z,12.60
2023-04-30T01:52:18.174Z,12.60
2023-04-30T01:55:06.494Z,12.60
2023-04-30T01:58:10.416Z,12.60
2023-04-30T02:00:47.089Z,12.50
2023-04-30T02:03:23.076Z,12.50
2023-04-30T02:05:59.401Z,12.50
2023-04-30T02:08:35.382Z,12.50
2023-04-30T02:11:11.351Z,12.40
2023-04-30T02:13:47.282Z,12.40
2023-04-30T02:16:24.057Z,12.40
2023-04-30T02:18:59.998Z,12.40
2023-04-30T02:21:35.895Z,12.40
2023-04-30T02:24:11.831Z,12.40
2023-04-30T02:26:47.675Z,12.40
2023-04-30T02:29:23.567Z,12.40
2023-04-30T02:31:59.753Z,12.30
2023-04-30T02:34:35.675Z,12.30
2023-04-30T02:37:12.756Z,12.30
2023-04-30T02:39:48.913Z,12.30
2023-04-30T02:42:25.569Z,12.30
2023-04-30T02:45:01.467Z,12.30
2023-04-30T02:47:37.420Z,12.30
2023-04-30T02:50:13.346Z,12.20
2023-04-30T02:52:49.240Z,12.20
2023-04-30T02:55:25.272Z,12.20
2023-04-30T02:58:01.730Z,12.20
2023-04-30T03:00:37.664Z,12.10
2023-04-30T03:03:13.748Z,12.10
2023-04-30T03:05:49.698Z,12.10
2023-04-30T03:08:26.560Z,12.10
2023-04-30T03:11:02.481Z,12.00
2023-04-30T03:13:38.367Z,12.00
2023-04-30T03:16:14.375Z,12.00
2023-04-30T03:18:50.367Z,12.00
2023-04-30T03:21:26.301Z,12.00
2023-04-30T03:24:02.222Z,12.00
2023-04-30T03:26:38.081Z,11.90
2023-04-30T03:29:14.001Z,11.90
2023-04-30T03:31:49.898Z,11.90
2023-04-30T03:34:25.915Z,11.90
2023-04-30T03:37:01.858Z,11.80
2023-04-30T03:39:37.770Z,11.80
2023-04-30T03:42:13.705Z,11.80
2023-04-30T03:44:49.598Z,11.80
2023-04-30T03:47:25.536Z,11.80
2023-04-30T03:50:01.513Z,11.70
2023-04-30T03:52:37.846Z,11.70
2023-04-30T03:55:13.953Z,11.70
2023-04-30T03:57:49.842Z,11.70
2023-04-30T04:00:26.662Z,11.70
2023-04-30T04:03:03.632Z,11.70
2023-04-30T04:05:39.822Z,11.70
2023-04-30T04:08:16.298Z,11.70
2023-04-30T04:10:52.485Z,11.70
2023-04-30T04:13:28.389Z,11.70
2023-04-30T04:16:04.518Z,11.70
2023-04-30T04:18:40.875Z,11.70
2023-04-30T04:21:17.023Z,11.80
2023-04-30T04:23:53.010Z,11.80
2023-04-30T04:26:29.875Z,11.80
2023-04-30T04:29:05.985Z,11.80
2023-04-30T04:31:42.819Z,11.80
2023-04-30T04:34:20.115Z,11.90
2023-04-30T04:36:56.206Z,11.90
2023-04-30T04:39:32.415Z,11.90
2023-04-30T04:42:09.628Z,11.90
2023-04-30T04:44:45.592Z,11.90
2023-04-30T04:47:23.269Z,12.00
2023-04-30T04:49:59.379Z,12.00
2023-04-30T04:52:35.662Z,12.00
2023-04-30T04:55:12.181Z,12.00
2023-04-30T04:57:48.155Z,12.10
2023-04-30T05:00:25.902Z,12.10
2023-04-30T05:03:01.942Z,12.10
2023-04-30T05:05:38.574Z,12.10
2023-04-30T05:08:14.400Z,12.10
2023-04-30T05:10:50.367Z,12.10
2023-04-30T05:13:26.389Z,12.10
2023-04-30T05:16:02.292Z,12.20
2023-04-30T05:18:38.215Z,12.20
2023-04-30T05:21:14.083Z,12.20
2023-04-30T05:23:49.953Z,12.30
2023-04-30T05:26:25.798Z,12.30
2023-04-30T05:29:01.665Z,12.40
2023-04-30T05:31:37.910Z,12.50
2023-04-30T05:34:13.781Z,12.50
2023-04-30T05:36:49.631Z,12.60
2023-04-30T05:39:25.506Z,12.70
2023-04-30T05:42:02.468Z,12.80
2023-04-30T05:44:38.369Z,12.80
2023-04-30T05:47:14.234Z,12.80
2023-04-30T05:49:50.243Z,12.90
2023-04-30T05:52:26.163Z,12.90
2023-04-30T05:55:02.073Z,12.90
2023-04-30T05:57:38.193Z,12.90
2023-04-30T06:00:15.747Z,13.00
2023-04-30T06:02:51.690Z,13.10
2023-04-30T06:05:27.635Z,13.20
2023-04-30T06:08:04.316Z,13.30
2023-04-30T06:10:40.289Z,13.30
2023-04-30T06:13:16.547Z,13.40
2023-04-30T06:15:52.432Z,13.40
2023-04-30T06:18:28.540Z,13.50
2023-04-30T06:21:04.504Z,13.60
2023-04-30T06:23:40.383Z,13.70
2023-04-30T06:26:16.251Z,13.80
2023-04-30T06:28:52.106Z,13.90
2023-04-30T06:31:28.016Z,14.00
2023-04-30T06:34:03.920Z,14.10
2023-04-30T06:36:39.762Z,14.20
2023-04-30T06:39:16.606Z,14.30
2023-04-30T06:41:52.453Z,14.30
2023-04-30T06:44:30.947Z,14.40
2023-04-30T06:47:07.742Z,14.40
2023-04-30T06:49:43.671Z,14.40
2023-04-30T06:52:19.546Z,14.50
2023-04-30T06:54:55.405Z,14.60
2023-04-30T06:57:31.776Z,14.70
2023-04-30T07:00:08.913Z,14.70
2023-04-30T07:02:47.778Z,14.70
2023-04-30T07:05:23.753Z,14.70
2023-04-30T07:08:01.901Z,14.90
2023-04-30T07:10:37.775Z,15.00
2023-04-30T07:13:13.774Z,15.10
2023-04-30T07:15:49.842Z,15.10
2023-04-30T07:18:25.704Z,15.20
2023-04-30T07:21:01.606Z,15.20
2023-04-30T07:23:37.542Z,15.20
2023-04-30T07:26:13.420Z,15.00
2023-04-30T07:28:49.924Z,15.10
2023-04-30T07:31:26.978Z,15.00
2023-04-30T07:34:02.843Z,15.00
2023-04-30T07:36:39.034Z,15.00
2023-04-30T07:39:14.968Z,15.00
2023-04-30T07:41:50.828Z,14.90
2023-04-30T07:44:26.708Z,15.00
2023-04-30T07:47:02.533Z,15.00
2023-04-30T07:49:38.442Z,15.00
2023-04-30T07:52:14.563Z,15.10
2023-04-30T07:54:50.450Z,15.00
2023-04-30T07:57:28.925Z,15.00
2023-04-30T08:00:05.681Z,15.00
2023-04-30T08:02:48.613Z,15.00
2023-04-30T08:05:24.850Z,14.90
2023-04-30T08:08:00.950Z,14.90
2023-04-30T08:10:37.309Z,14.90
2023-04-30T08:13:13.187Z,15.00
2023-04-30T08:15:49.057Z,15.00
2023-04-30T08:18:25.062Z,15.10
2023-04-30T08:21:01.467Z,15.20
2023-04-30T08:23:37.440Z,15.40
2023-04-30T08:26:13.264Z,15.70
2023-04-30T08:28:49.552Z,15.80
2023-04-30T08:31:25.620Z,15.90
2023-04-30T08:34:01.622Z,16.00
2023-04-30T08:36:37.488Z,16.20
2023-04-30T08:39:13.343Z,16.40
2023-04-30T08:41:56.994Z,16.60
2023-04-30T08:44:35.270Z,16.70
2023-04-30T08:47:14.391Z,16.90
2023-04-30T08:49:50.325Z,17.10
2023-04-30T08:52:28.942Z,17.30
2023-04-30T08:55:08.679Z,17.40
2023-04-30T08:57:44.630Z,17.60
2023-04-30T09:00:21.057Z,17.80
2023-04-30T09:02:57.000Z,17.90
2023-04-30T09:05:32.875Z,18.00
2023-04-30T09:08:09.157Z,17.90
2023-04-30T09:10:45.042Z,17.90
2023-04-30T09:13:20.904Z,18.00
2023-04-30T09:16:00.109Z,18.00
2023-04-30T09:18:39.587Z,18.10
2023-04-30T09:21:15.871Z,18.40
2023-04-30T09:24:01.470Z,18.40
2023-04-30T09:26:38.795Z,18.50
2023-04-30T09:29:15.622Z,18.70
2023-04-30T09:31:52.073Z,18.90
2023-04-30T09:34:35.807Z,19.00
2023-04-30T09:37:12.344Z,19.10
2023-04-30T09:39:50.027Z,19.20
2023-04-30T09:42:25.888Z,19.40
2023-04-30T09:45:01.809Z,19.30
2023-04-30T09:47:40.377Z,19.30
2023-04-30T09:50:17.935Z,19.50
2023-04-30T09:52:54.070Z,19.40
2023-04-30T09:55:29.957Z,19.50
2023-04-30T09:58:07.616Z,19.70
2023-04-30T10:00:45.579Z,19.90
2023-04-30T10:03:24.675Z,20.10
2023-04-30T10:06:01.976Z,20.20
2023-04-30T10:08:43.767Z,20.30
2023-04-30T10:11:21.964Z,20.30
2023-04-30T10:14:09.489Z,20.20
2023-04-30T10:17:11.583Z,20.20
2023-04-30T10:19:51.941Z,20.40
2023-04-30T10:22:29.896Z,20.50
2023-04-30T10:25:07.238Z,20.50
2023-04-30T10:27:43.410Z,20.20
2023-04-30T10:30:19.302Z,20.20
2023-04-30T10:33:16.815Z,20.30
2023-04-30T10:36:05.887Z,20.50
2023-04-30T10:38:41.839Z,20.40
2023-04-30T10:41:20.357Z,20.60
2023-04-30T10:44:02.009Z,20.70
2023-04-30T10:46:38.275Z,20.80
2023-04-30T10:49:14.656Z,20.80
2023-04-30T10:51:54.098Z,21.00
2023-04-30T10:54:34.599Z,21.20
2023-04-30T10:57:13.334Z,21.50
2023-04-30T11:00:15.039Z,21.50
2023-04-30T11:03:07.518Z,21.70
2023-04-30T11:05:43.471Z,21.70
2023-04-30T11:08:21.151Z,21.90
2023-04-30T11:11:00.588Z,21.90
2023-04-30T11:13:46.628Z,22.00
2023-04-30T11:16:31.538Z,21.90
2023-04-30T11:19:11.951Z,21.90
2023-04-30T11:22:06.109Z,22.10
2023-04-30T11:25:00.182Z,22.10
2023-04-30T11:27:38.676Z,22.30
2023-04-30T11:30:19.099Z,22.30
2023-04-30T11:32:59.817Z,22.20
2023-04-30T11:35:35.924Z,22.30
2023-04-30T11:38:17.316Z,22.50
2023-04-30T11:40:54.865Z,22.50
2023-04-30T11:43:33.525Z,22.40
2023-04-30T11:46:17.522Z,22.50
2023-04-30T11:48:53.449Z,22.40
2023-04-30T11:51:29.721Z,22.40
2023-04-30T11:54:08.579Z,22.50
2023-04-30T11:56:48.701Z,22.80
2023-04-30T11:59:24.877Z,22.90
2023-04-30T12:02:00.902Z,23.00
2023-04-30T12:04:37.065Z,23.20
2023-04-30T12:07:13.403Z,23.30
2023-04-30T12:09:56.453Z,23.00
2023-04-30T12:12:32.899Z,22.90
2023-04-30T12:15:20.203Z,22.50
2023-04-30T12:17:58.143Z,22.40
2023-04-30T12:20:34.143Z,22.40
2023-04-30T12:23:10.342Z,22.50
2023-04-30T12:25:47.645Z,22.60
2023-04-30T12:28:24.343Z,22.50
2023-04-30T12:31:02.316Z,22.50
2023-04-30T12:33:38.268Z,22.40
2023-04-30T12:36:14.550Z,22.30
2023-04-30T12:38:50.438Z,22.30
2023-04-30T12:41:30.110Z,22.10
2023-04-30T12:44:27.542Z,22.00
2023-04-30T12:47:08.007Z,21.80
2023-04-30T12:49:46.818Z,21.80
2023-04-30T12:52:26.883Z,21.90
2023-04-30T12:55:16.772Z,22.00
2023-04-30T12:58:13.489Z,22.10
2023-04-30T13:00:52.684Z,21.80
2023-04-30T13:03:28.739Z,21.80
2023-04-30T13:06:06.812Z,21.90
2023-04-30T13:08:57.069Z,22.20
2023-04-30T13:11:34.104Z,22.30
2023-04-30T13:14:11.284Z,22.30
2023-04-30T13:16:47.764Z,22.20
2023-04-30T13:19:23.882Z,22.30
2023-04-30T13:22:01.599Z,22.10
2023-04-30T13:24:37.640Z,22.10
2023-04-30T13:27:13.955Z,22.20
2023-04-30T13:29:49.803Z,22.40
2023-04-30T13:32:25.790Z,22.50
2023-04-30T13:35:01.664Z,22.60
2023-04-30T13:37:38.729Z,22.70
2023-04-30T13:40:15.395Z,22.90
2023-04-30T13:42:51.461Z,23.00
2023-04-30T13:45:27.297Z,23.10
2023-04-30T13:48:03.289Z,23.20
2023-04-30T13:50:39.160Z,23.40
2023-04-30T13:53:15.319Z,23.60
2023-04-30T13:55:51.280Z,23.90
2023-04-30T13:58:28.839Z,24.10
2023-04-30T14:01:05.159Z,24.20
2023-04-30T14:03:41.627Z,24.60
2023-04-30T14:06:18.012Z,24.70
2023-04-30T14:08:54.646Z,24.80
2023-04-30T14:11:30.797Z,24.70
2023-04-30T14:14:08.547Z,24.40
2023-04-30T14:16:44.864Z,24.40
2023-04-30T14:19:23.140Z,24.40
2023-04-30T14:21:59.554Z,24.50
2023-04-30T14:24:36.090Z,24.50
2023-04-30T14:27:12.653Z,24.70
2023-04-30T14:29:48.611Z,24.70
2023-04-30T14:32:27.997Z,24.50
2023-04-30T14:35:05.287Z,24.10
2023-04-30T14:37:41.205Z,23.80
2023-04-30T14:40:17.102Z,23.80
2023-04-30T14:42:53.053Z,23.80
2023-04-30T14:45:29.178Z,23.80
2023-04-30T14:48:05.872Z,23.80
2023-04-30T14:50:42.373Z,23.80
2023-04-30T14:53:18.284Z,23.90
2023-04-30T14:55:54.137Z,24.00
2023-04-30T14:58:30.809Z,24.20
2023-04-30T15:01:06.698Z,24.20
2023-04-30T15:03:42.847Z,24.30
2023-04-30T15:06:19.468Z,24.30
2023-04-30T15:08:56.166Z,24.30
2023-04-30T15:11:32.085Z,24.30
2023-04-30T15:14:07.971Z,24.20
2023-04-30T15:16:44.007Z,24.20
2023-04-30T15:19:20.005Z,24.30
2023-04-30T15:21:55.996Z,24.30
2023-04-30T15:24:31.887Z,24.40
2023-04-30T15:27:07.801Z,24.40
2023-04-30T15:29:44.376Z,24.20
2023-04-30T15:32:20.955Z,24.20
2023-04-30T15:34:57.174Z,24.30
2023-04-30T15:37:34.554Z,24.20
2023-04-30T15:40:14.933Z,24.20
2023-04-30T15:42:51.215Z,24.20
2023-04-30T15:45:29.352Z,24.40
2023-04-30T15:48:05.715Z,24.40
2023-04-30T15:50:41.655Z,24.40
2023-04-30T15:53:17.516Z,24.30
2023-04-30T15:55:53.904Z,24.10
2023-04-30T15:58:29.852Z,24.10
2023-04-30T16:01:06.282Z,23.90
2023-04-30T16:03:42.734Z,23.80
2023-04-30T16:06:19.232Z,23.80
2023-04-30T16:08:56.237Z,23.90
2023-04-30T16:11:32.892Z,23.90
2023-04-30T16:14:08.892Z,23.90
2023-04-30T16:16:45.355Z,24.00
2023-04-30T16:19:21.511Z,23.90
2023-04-30T16:21:58.025Z,23.90
2023-04-30T16:24:35.073Z,23.90
2023-04-30T16:27:12.912Z,23.80
2023-04-30T16:29:48.787Z,23.70
2023-04-30T16:32:24.761Z,23.50
2023-04-30T16:35:00.709Z,23.30
2023-04-30T16:37:37.791Z,23.20
2023-04-30T16:40:14.007Z,23.00
2023-04-30T16:42:50.168Z,22.80
2023-04-30T16:45:26.771Z,22.60
2023-04-30T16:48:02.694Z,22.50
2023-04-30T16:50:38.708Z,22.40
2023-04-30T16:53:14.661Z,22.30
2023-04-30T16:55:52.457Z,22.20
2023-04-30T16:58:29.049Z,22.20
2023-04-30T17:01:05.269Z,22.00
2023-04-30T17:03:41.249Z,21.90
2023-04-30T17:06:17.806Z,21.70
2023-04-30T17:08:54.806Z,21.60
2023-04-30T17:11:31.820Z,21.50
2023-04-30T17:14:08.576Z,21.50
2023-04-30T17:16:44.953Z,21.40
2023-04-30T17:19:20.853Z,21.30
2023-04-30T17:21:56.807Z,21.20
2023-04-30T17:24:32.672Z,21.00
2023-04-30T17:27:08.635Z,20.90
2023-04-30T17:29:44.614Z,20.80
2023-04-30T17:32:20.557Z,20.70
2023-04-30T17:34:57.817Z,20.60
2023-04-30T17:37:35.326Z,20.50
2023-04-30T17:40:12.279Z,20.40
2023-04-30T17:42:51.449Z,20.30
2023-04-30T17:45:27.616Z,20.20
2023-04-30T17:48:03.728Z,20.10
2023-04-30T17:50:39.730Z,19.90
2023-04-30T17:53:16.126Z,19.80
2023-04-30T17:55:52.384Z,19.70
2023-04-30T17:58:30.326Z,19.60
2023-04-30T18:01:06.204Z,19.50
2023-04-30T18:03:42.800Z,19.40
2023-04-30T18:06:18.933Z,19.30
2023-04-30T18:08:54.885Z,19.20
2023-04-30T18:11:30.841Z,19.00
2023-04-30T18:14:06.834Z,18.90
2023-04-30T18:16:44.021Z,18.80
2023-04-30T18:19:20.864Z,18.70
2023-04-30T18:21:57.185Z,18.60
2023-04-30T18:24:33.218Z,18.50
2023-04-30T18:27:10.063Z,18.30
2023-04-30T18:29:46.597Z,18.20
2023-04-30T18:32:22.583Z,18.10
2023-04-30T18:34:59.068Z,18.00
2023-04-30T18:37:35.019Z,17.90
2023-04-30T18:40:11.573Z,17.70
2023-04-30T18:42:47.499Z,17.70
2023-04-30T18:45:23.928Z,17.60
2023-04-30T18:48:00.469Z,17.50
2023-04-30T18:50:37.140Z,17.40
2023-04-30T18:53:13.456Z,17.30
2023-04-30T18:55:49.369Z,17.30
2023-04-30T18:58:25.588Z,17.20
2023-04-30T19:01:01.602Z,17.10
2023-04-30T19:03:37.856Z,17.00
2023-04-30T19:06:14.230Z,16.90
2023-04-30T19:08:50.404Z,16.80
2023-04-30T19:11:27.082Z,16.70
2023-04-30T19:14:03.793Z,16.60
2023-04-30T19:16:41.139Z,16.50
2023-04-30T19:19:17.197Z,16.40
2023-04-30T19:21:53.512Z,16.30
2023-04-30T19:24:30.035Z,16.20
2023-04-30T19:27:06.636Z,16.20
2023-04-30T19:29:42.739Z,16.10
2023-04-30T19:32:22.794Z,16.00
2023-04-30T19:34:58.996Z,16.00
2023-04-30T19:37:35.028Z,15.90
2023-04-30T19:40:12.237Z,15.80
2023-04-30T19:42:48.170Z,15.70
2023-04-30T19:45:24.076Z,15.60
2023-04-30T19:48:00.233Z,15.50
2023-04-30T19:50:42.728Z,15.50
2023-04-30T19:53:18.801Z,15.40
2023-04-30T19:55:55.279Z,15.30
2023-04-30T19:58:31.120Z,15.30
2023-04-30T20:01:08.481Z,15.20
2023-04-30T20:03:45.141Z,15.10
2023-04-30T20:06:21.302Z,15.10
2023-04-30T20:09:01.577Z,15.00
2023-04-30T20:11:37.535Z,15.00
2023-04-30T20:14:13.417Z,15.00
2023-04-30T20:16:54.088Z,14.90
2023-04-30T20:19:29.974Z,14.80
2023-04-30T20:22:12.870Z,14.80
2023-04-30T20:24:48.743Z,14.70
2023-04-30T20:27:25.606Z,14.60
2023-04-30T20:30:04.289Z,14.60
2023-04-30T20:32:41.138Z,14.50
2023-04-30T20:35:17.452Z,14.40
2023-04-30T20:37:55.716Z,14.30
2023-04-30T20:40:32.074Z,14.30
2023-04-30T20:43:10.992Z,14.20
2023-04-30T20:45:47.540Z,14.20
2023-04-30T20:48:23.875Z,14.10
2023-04-30T20:50:59.793Z,14.10
2023-04-30T20:53:35.922Z,14.00
2023-04-30T20:56:12.172Z,14.00
2023-04-30T20:58:48.536Z,13.90
2023-04-30T21:01:24.541Z,13.80
2023-04-30T21:04:00.864Z,13.80
2023-04-30T21:06:37.100Z,13.80
2023-04-30T21:09:13.078Z,13.70
2023-04-30T21:11:49.601Z,13.70
2023-04-30T21:14:25.425Z,13.60
2023-04-30T21:17:01.472Z,13.60
2023-04-30T21:19:37.708Z,13.50
2023-04-30T21:22:13.871Z,13.50
2023-04-30T21:24:53.712Z,13.40
2023-04-30T21:27:29.586Z,13.30
2023-04-30T21:30:06.659Z,13.30
2023-04-30T21:32:47.037Z,13.30
2023-04-30T21:35:23.084Z,13.30
2023-04-30T21:37:58.932Z,13.30
2023-04-30T21:40:34.844Z,13.20
2023-04-30T21:43:10.712Z,13.10
2023-04-30T21:45:47.642Z,13.00
2023-04-30T21:48:23.593Z,13.00
2023-04-30T21:50:59.578Z,12.90
2023-04-30T21:53:35.435Z,12.80
2023-04-30T21:56:12.424Z,12.80
2023-04-30T21:58:48.355Z,12.70
2023-04-30T22:01:29.842Z,12.70
2023-04-30T22:04:06.073Z,12.60
2023-04-30T22:06:42.532Z,12.60
2023-04-30T22:09:18.933Z,12.60
2023-04-30T22:11:54.813Z,12.50
2023-04-30T22:14:31.039Z,12.50
2023-04-30T22:17:07.085Z,12.40
2023-04-30T22:19:43.075Z,12.40
2023-04-30T22:22:18.946Z,12.40
2023-04-30T22:24:54.987Z,12.40
2023-04-30T22:27:31.649Z,12.30
2023-04-30T22:30:08.148Z,12.30
2023-04-30T22:32:44.130Z,12.30
2023-04-30T22:35:20.355Z,12.20
2023-04-30T22:37:56.241Z,12.20
2023-04-30T22:40:39.462Z,12.20
2023-04-30T22:43:16.275Z,12.20
2023-04-30T22:45:52.215Z,12.20
2023-04-30T22:48:29.071Z,12.10
2023-04-30T22:51:05.724Z,12.00
2023-04-30T22:53:42.059Z,12.00
2023-04-30T22:56:17.939Z,12.00
2023-04-30T22:58:53.947Z,12.00
2023-04-30T23:01:29.905Z,12.00
2023-04-30T23:04:05.937Z,11.90
2023-04-30T23:06:42.916Z,11.90
2023-04-30T23:09:19.581Z,11.80
2023-04-30T23:11:55.498Z,11.80
2023-04-30T23:14:31.680Z,11.80
2023-04-30T23:17:07.550Z,11.80
2023-04-30T23:19:43.441Z,11.70
2023-04-30T23:22:19.264Z,11.70
2023-04-30T23:24:57.073Z,11.70
2023-04-30T23:27:33.897Z,11.70
2023-04-30T23:30:10.843Z,11.60
2023-04-30T23:32:46.811Z,11.60
2023-04-30T23:35:22.795Z,11.60
2023-04-30T23:37:58.644Z,11.50
2023-04-30T23:40:34.512Z,11.50
2023-04-30T23:43:11.488Z,11.50
2023-04-30T23:45:47.714Z,11.40
2023-04-30T23:48:23.637Z,11.40
2023-04-30T23:51:08.278Z,11.40
2023-04-30T23:53:44.241Z,11.40
2023-04-30T23:56:20.050Z,11.40
2023-04-30T23:58:55.877Z,11.40
